createdAt,value
2022-12-25T00:01:59.712Z,8.27
2022-12-25T00:04:28.705Z,11.40
2022-12-25T00:06:57.573Z,11.60
2022-12-25T00:09:26.434Z,13.60
2022-12-25T00:11:56.667Z,8.63
2022-12-25T00:14:25.496Z,5.72
2022-12-25T00:16:54.366Z,8.15
2022-12-25T00:19:23.156Z,5.78
2022-12-25T00:21:51.987Z,6.03
2022-12-25T00:24:21.368Z,7.07
2022-12-25T00:26:50.195Z,8.80
2022-12-25T00:29:20.451Z,7.55
2022-12-25T00:31:49.288Z,6.68
2022-12-25T00:34:18.205Z,8.60
2022-12-25T00:36:47.006Z,6.95
2022-12-25T00:39:15.780Z,6.20
2022-12-25T00:42:02.250Z,6.35
2022-12-25T00:44:32.637Z,4.65
2022-12-25T00:47:01.529Z,7.38
2022-12-25T00:49:30.386Z,4.65
2022-12-25T00:51:59.265Z,12.82
2022-12-25T00:54:28.206Z,7.05
2022-12-25T00:56:57.061Z,5.53
2022-12-25T00:59:25.935Z,6.45
2022-12-25T01:01:56.203Z,4.93
2022-12-25T01:04:25.012Z,6.38
2022-12-25T01:06:53.848Z,4.07
2022-12-25T01:09:40.079Z,7.85
2022-12-25T01:12:09.037Z,6.40
2022-12-25T01:14:37.943Z,5.72
2022-12-25T01:17:08.169Z,3.35
2022-12-25T01:19:36.967Z,6.70
2022-12-25T01:22:05.848Z,7.70
2022-12-25T01:24:34.680Z,6.35
2022-12-25T01:27:04.151Z,3.72
2022-12-25T01:29:32.993Z,3.15
2022-12-25T01:32:02.053Z,2.67
2022-12-25T01:34:33.498Z,5.85
2022-12-25T01:37:03.664Z,7.90
2022-12-25T01:39:32.873Z,4.25
2022-12-25T01:42:02.367Z,3.25
2022-12-25T01:45:24.262Z,5.05
2022-12-25T01:47:53.152Z,7.50
2022-12-25T01:50:24.075Z,3.33
2022-12-25T01:52:53.622Z,6.13
2022-12-25T01:55:23.797Z,11.82
2022-12-25T01:57:53.285Z,5.05
2022-12-25T02:00:22.505Z,6.30
2022-12-25T02:02:51.528Z,5.93
2022-12-25T02:05:26.107Z,4.20
2022-12-25T02:07:55.810Z,2.90
2022-12-25T02:10:24.816Z,6.20
2022-12-25T02:12:54.480Z,4.03
2022-12-25T02:15:28.203Z,6.80
2022-12-25T02:18:03.693Z,5.13
2022-12-25T02:21:00.202Z,6.63
2022-12-25T02:24:11.076Z,7.38
2022-12-25T02:27:04.528Z,10.13
2022-12-25T02:29:43.930Z,14.35
2022-12-25T02:32:20.722Z,5.93
2022-12-25T02:34:54.377Z,7.88
2022-12-25T02:37:29.306Z,6.90
2022-12-25T02:40:02.813Z,5.65
2022-12-25T02:43:02.845Z,3.08
2022-12-25T02:45:54.745Z,5.03
2022-12-25T02:48:44.724Z,7.05
2022-12-25T02:51:48.879Z,4.55
2022-12-25T02:54:38.342Z,7.10
2022-12-25T02:57:30.455Z,8.10
2022-12-25T03:00:18.769Z,5.93
2022-12-25T03:03:08.293Z,8.23
2022-12-25T03:05:58.652Z,6.63
2022-12-25T03:08:30.706Z,4.40
2022-12-25T03:11:22.104Z,70.30
2022-12-25T03:13:55.049Z,46.05
2022-12-25T03:16:41.899Z,13.40
2022-12-25T03:19:26.016Z,15.30
2022-12-25T03:22:14.522Z,7.32
2022-12-25T03:25:02.043Z,13.70
2022-12-25T03:27:34.607Z,7.13
2022-12-25T03:30:23.017Z,14.77
2022-12-25T03:32:59.089Z,9.43
2022-12-25T03:35:44.345Z,13.05
2022-12-25T03:38:46.451Z,15.40
2022-12-25T03:41:50.599Z,7.50
2022-12-25T03:44:54.923Z,5.78
2022-12-25T03:47:53.091Z,19.63
2022-12-25T03:50:44.839Z,12.10
2022-12-25T03:53:42.715Z,14.27
2022-12-25T03:56:30.377Z,10.60
2022-12-25T03:59:23.098Z,15.93
2022-12-25T04:02:11.247Z,7.85
2022-12-25T04:04:54.024Z,7.82
2022-12-25T04:07:40.243Z,5.82
2022-12-25T04:10:29.001Z,9.25
2022-12-25T04:13:15.484Z,3.95
2022-12-25T04:16:02.559Z,11.80
2022-12-25T04:18:49.040Z,10.13
2022-12-25T04:21:35.534Z,3.80
2022-12-25T04:24:22.104Z,5.18
2022-12-25T04:27:09.843Z,6.22
2022-12-25T04:29:56.197Z,6.47
2022-12-25T04:32:42.940Z,7.38
2022-12-25T04:35:29.445Z,16.25
2022-12-25T04:37:58.588Z,23.70
2022-12-25T04:40:27.583Z,12.98
2022-12-25T04:42:57.812Z,16.40
2022-12-25T04:45:26.662Z,10.15
2022-12-25T04:47:55.525Z,8.70
2022-12-25T04:50:24.320Z,6.80
2022-12-25T04:52:53.199Z,7.40
2022-12-25T04:55:22.094Z,12.15
2022-12-25T04:57:50.853Z,12.27
2022-12-25T05:00:21.768Z,11.60
2022-12-25T05:02:50.775Z,7.78
2022-12-25T05:05:19.761Z,4.25
2022-12-25T05:07:48.587Z,4.55
2022-12-25T05:10:17.943Z,3.95
2022-12-25T05:12:46.845Z,5.35
2022-12-25T05:15:15.726Z,5.38
2022-12-25T05:17:45.908Z,4.10
2022-12-25T05:20:14.863Z,4.93
2022-12-25T05:22:43.781Z,6.85
2022-12-25T05:25:12.608Z,7.65
2022-12-25T05:27:41.459Z,8.45
2022-12-25T05:30:11.141Z,8.48
2022-12-25T05:32:39.964Z,5.35
2022-12-25T05:35:10.870Z,8.32
2022-12-25T05:37:39.750Z,13.68
2022-12-25T05:40:09.893Z,13.43
2022-12-25T05:42:38.734Z,14.98
2022-12-25T05:45:08.810Z,14.23
2022-12-25T05:47:37.648Z,15.50
2022-12-25T05:50:07.720Z,15.10
2022-12-25T05:52:37.989Z,12.50
2022-12-25T05:55:07.529Z,13.63
2022-12-25T05:57:36.388Z,23.73
2022-12-25T06:00:05.701Z,17.17
2022-12-25T06:02:41.445Z,30.15
2022-12-25T06:05:11.079Z,28.58
2022-12-25T06:07:41.457Z,25.42
2022-12-25T06:10:10.708Z,27.15
2022-12-25T06:12:39.877Z,18.05
2022-12-25T06:15:10.080Z,29.05
2022-12-25T06:17:39.383Z,18.77
2022-12-25T06:20:09.381Z,14.93
2022-12-25T06:22:38.258Z,15.75
2022-12-25T06:25:09.725Z,10.30
2022-12-25T06:27:38.686Z,16.67
2022-12-25T06:30:09.025Z,43.17
2022-12-25T06:32:38.067Z,32.22
2022-12-25T06:35:07.748Z,31.30
2022-12-25T06:37:36.650Z,33.17
2022-12-25T06:40:06.358Z,24.05
2022-12-25T06:42:36.974Z,17.77
2022-12-25T06:45:06.653Z,29.02
2022-12-25T06:47:35.548Z,17.67
2022-12-25T06:50:05.795Z,14.27
2022-12-25T06:52:34.847Z,22.08
2022-12-25T06:55:04.630Z,18.75
2022-12-25T06:57:34.051Z,31.40
2022-12-25T07:00:07.295Z,18.20
2022-12-25T07:02:38.582Z,12.68
2022-12-25T07:05:08.176Z,10.65
2022-12-25T07:07:36.999Z,17.20
2022-12-25T07:10:06.667Z,24.38
2022-12-25T07:12:35.688Z,12.88
2022-12-25T07:15:07.181Z,12.43
2022-12-25T07:17:36.853Z,13.60
2022-12-25T07:20:06.994Z,10.82
2022-12-25T07:22:36.722Z,9.83
2022-12-25T07:25:06.202Z,8.52
2022-12-25T07:27:35.348Z,11.02
2022-12-25T07:30:06.519Z,15.73
2022-12-25T07:32:35.376Z,8.13
2022-12-25T07:35:04.929Z,7.97
2022-12-25T07:37:33.797Z,10.57
2022-12-25T07:40:04.092Z,18.05
2022-12-25T07:42:32.912Z,7.50
2022-12-25T07:45:02.853Z,9.48
2022-12-25T07:47:33.247Z,7.88
2022-12-25T07:50:02.792Z,8.13
2022-12-25T07:52:32.769Z,9.40
2022-12-25T07:55:04.901Z,5.28
2022-12-25T07:57:35.944Z,6.95
2022-12-25T08:00:05.125Z,8.68
2022-12-25T08:02:42.814Z,5.68
2022-12-25T08:05:11.960Z,7.53
2022-12-25T08:07:40.825Z,8.50
2022-12-25T08:10:10.041Z,7.78
2022-12-25T08:12:38.871Z,5.95
2022-12-25T08:15:08.739Z,6.72
2022-12-25T08:17:37.606Z,6.32
2022-12-25T08:20:09.588Z,11.18
2022-12-25T08:22:38.446Z,7.43
2022-12-25T08:25:08.145Z,11.57
2022-12-25T08:27:37.462Z,9.93
2022-12-25T08:30:07.625Z,5.72
2022-12-25T08:32:36.550Z,4.65
2022-12-25T08:35:07.590Z,6.93
2022-12-25T08:37:36.471Z,5.55
2022-12-25T08:40:06.388Z,6.07
2022-12-25T08:42:35.215Z,4.82
2022-12-25T08:45:04.830Z,4.53
2022-12-25T08:47:33.741Z,7.10
2022-12-25T08:50:04.035Z,4.07
2022-12-25T08:52:34.439Z,5.30
2022-12-25T08:55:05.148Z,3.78
2022-12-25T08:57:33.917Z,4.07
2022-12-25T09:00:03.423Z,5.25
2022-12-25T09:02:33.104Z,5.60
2022-12-25T09:05:02.840Z,6.72
2022-12-25T09:07:31.788Z,5.78
2022-12-25T09:10:02.021Z,6.88
2022-12-25T09:12:30.893Z,4.38
2022-12-25T09:14:59.719Z,4.50
2022-12-25T09:17:28.981Z,5.53
2022-12-25T09:19:57.805Z,9.10
2022-12-25T09:22:26.738Z,4.70
2022-12-25T09:24:55.580Z,4.15
2022-12-25T09:27:25.727Z,8.10
2022-12-25T09:29:54.631Z,5.85
2022-12-25T09:32:23.480Z,7.07
2022-12-25T09:34:52.441Z,4.57
2022-12-25T09:37:21.249Z,4.90
2022-12-25T09:39:50.245Z,5.10
2022-12-25T09:42:23.874Z,3.53
2022-12-25T09:44:59.314Z,6.07
2022-12-25T09:47:32.514Z,4.50
2022-12-25T09:50:05.476Z,6.68
2022-12-25T09:52:42.563Z,3.50
2022-12-25T09:55:19.956Z,6.00
2022-12-25T09:57:53.484Z,5.10
2022-12-25T10:00:25.729Z,2.30
2022-12-25T10:03:14.302Z,3.97
2022-12-25T10:06:00.131Z,3.63
2022-12-25T10:08:43.371Z,2.38
2022-12-25T10:11:25.957Z,2.72
2022-12-25T10:14:11.692Z,8.50
2022-12-25T10:16:50.969Z,3.30
2022-12-25T10:19:36.278Z,3.97
2022-12-25T10:22:12.722Z,4.38
2022-12-25T10:24:46.954Z,5.60
2022-12-25T10:27:20.068Z,3.17
2022-12-25T10:29:54.446Z,2.63
2022-12-25T10:32:24.714Z,4.10
2022-12-25T10:34:53.569Z,4.28
2022-12-25T10:37:22.525Z,13.52
2022-12-25T10:39:51.319Z,6.20
2022-12-25T10:42:32.198Z,5.68
2022-12-25T10:45:03.383Z,4.53
2022-12-25T10:47:38.050Z,3.45
2022-12-25T10:50:11.722Z,6.67
2022-12-25T10:52:56.081Z,2.97
2022-12-25T10:55:29.037Z,1.85
2022-12-25T10:57:59.821Z,4.03
2022-12-25T11:00:30.335Z,2.80
2022-12-25T11:03:01.238Z,4.13
2022-12-25T11:05:32.720Z,2.60
2022-12-25T11:08:04.087Z,2.22
2022-12-25T11:10:37.785Z,3.65
2022-12-25T11:13:08.640Z,1.85
2022-12-25T11:15:40.220Z,1.38
2022-12-25T11:18:22.154Z,8.43
2022-12-25T11:20:52.565Z,0.90
2022-12-25T11:23:23.772Z,1.30
2022-12-25T11:25:56.606Z,1.00
2022-12-25T11:28:27.470Z,1.95
2022-12-25T11:31:02.461Z,1.25
2022-12-25T11:33:37.869Z,2.53
2022-12-25T11:36:17.036Z,0.50
2022-12-25T11:38:46.118Z,1.73
2022-12-25T11:41:20.683Z,2.60
2022-12-25T11:43:54.507Z,10.10
2022-12-25T11:46:28.148Z,5.15
2022-12-25T11:49:04.098Z,2.15
2022-12-25T11:51:37.983Z,0.43
2022-12-25T11:54:18.623Z,0.47
2022-12-25T11:56:47.856Z,6.68
2022-12-25T11:59:22.873Z,3.22
2022-12-25T12:01:56.216Z,0.63
2022-12-25T12:04:35.142Z,1.83
2022-12-25T12:07:17.458Z,2.47
2022-12-25T12:09:53.056Z,0.55
2022-12-25T12:12:28.457Z,0.68
2022-12-25T12:15:02.468Z,1.13
2022-12-25T12:17:31.612Z,4.22
2022-12-25T12:20:12.420Z,0.77
2022-12-25T12:22:51.402Z,0.73
2022-12-25T12:25:21.274Z,0.75
2022-12-25T12:28:01.299Z,1.08
2022-12-25T12:30:36.002Z,0.30
2022-12-25T12:33:08.316Z,4.13
2022-12-25T12:35:41.123Z,5.05
2022-12-25T12:38:16.160Z,3.40
2022-12-25T12:40:53.147Z,4.30
2022-12-25T12:43:31.733Z,4.45
2022-12-25T12:46:05.554Z,2.28
2022-12-25T12:48:40.853Z,3.53
2022-12-25T12:53:41.577Z,14.85
2022-12-25T12:56:16.475Z,4.00
2022-12-25T12:58:50.805Z,0.43
2022-12-25T13:01:45.294Z,0.93
2022-12-25T13:04:49.266Z,3.90
2022-12-25T13:07:34.321Z,39.63
2022-12-25T13:10:14.953Z,17.35
2022-12-25T13:12:43.846Z,8.77
2022-12-25T13:15:14.437Z,3.10
2022-12-25T13:17:46.953Z,11.02
2022-12-25T13:20:23.749Z,9.30
2022-12-25T13:22:54.020Z,1.85
2022-12-25T13:25:25.014Z,0.60
2022-12-25T13:27:57.982Z,2.30
2022-12-25T13:30:27.874Z,5.88
2022-12-25T13:33:00.029Z,3.67
2022-12-25T13:35:30.908Z,1.58
2022-12-25T13:38:02.087Z,1.70
2022-12-25T13:40:30.992Z,6.97
2022-12-25T13:43:02.292Z,0.93
2022-12-25T13:45:34.106Z,0.73
2022-12-25T13:48:15.568Z,1.05
2022-12-25T13:50:48.440Z,0.80
2022-12-25T13:53:19.132Z,1.00
2022-12-25T13:55:52.518Z,0.32
2022-12-25T13:58:26.368Z,1.63
2022-12-25T14:00:57.786Z,2.03
2022-12-25T14:03:32.205Z,0.10
2022-12-25T14:06:04.099Z,0.57
2022-12-25T14:08:36.688Z,1.17
2022-12-25T14:11:08.317Z,0.45
2022-12-25T14:13:41.410Z,1.65
2022-12-25T14:16:11.455Z,2.75
2022-12-25T14:18:50.788Z,3.45
2022-12-25T14:21:26.865Z,0.52
2022-12-25T14:23:57.471Z,2.70
2022-12-25T14:26:28.685Z,2.70
2022-12-25T14:29:12.649Z,0.68
2022-12-25T14:31:47.172Z,3.45
2022-12-25T14:34:19.795Z,9.80
2022-12-25T14:36:50.417Z,1.73
2022-12-25T14:39:34.991Z,1.02
2022-12-25T14:42:13.846Z,0.63
2022-12-25T14:44:42.762Z,4.00
2022-12-25T14:47:18.193Z,0.30
2022-12-25T14:49:47.617Z,23.88
2022-12-25T14:52:20.728Z,12.70
2022-12-25T14:54:54.203Z,5.03
2022-12-25T14:57:28.884Z,1.35
2022-12-25T15:00:05.326Z,1.17
2022-12-25T15:02:46.222Z,1.27
2022-12-25T15:05:31.469Z,2.80
2022-12-25T15:08:22.040Z,10.85
2022-12-25T15:11:02.268Z,4.65
2022-12-25T15:13:32.913Z,7.47
2022-12-25T15:16:06.853Z,10.27
2022-12-25T15:18:39.807Z,9.10
2022-12-25T15:21:15.248Z,3.28
2022-12-25T15:23:44.276Z,3.13
2022-12-25T15:26:15.847Z,10.77
2022-12-25T15:28:44.734Z,5.60
2022-12-25T15:31:22.157Z,14.43
2022-12-25T15:33:51.216Z,19.17
2022-12-25T15:36:20.254Z,23.05
2022-12-25T15:38:49.196Z,11.02
2022-12-25T15:41:35.452Z,16.08
2022-12-25T15:44:06.097Z,27.83
2022-12-25T15:46:35.447Z,49.15
2022-12-25T15:49:04.414Z,44.13
2022-12-25T15:51:33.545Z,65.03
2022-12-25T15:54:02.374Z,42.13
2022-12-25T15:56:41.516Z,35.22
2022-12-25T15:59:10.971Z,30.02
2022-12-25T16:01:40.867Z,40.92
2022-12-25T16:04:09.771Z,29.02
2022-12-25T16:06:38.648Z,36.80
2022-12-25T16:09:07.461Z,35.45
2022-12-25T16:11:37.761Z,39.53
2022-12-25T16:14:06.721Z,31.00
2022-12-25T16:16:35.900Z,25.00
2022-12-25T16:19:05.274Z,41.95
2022-12-25T16:21:40.331Z,28.45
2022-12-25T16:24:09.575Z,39.97
2022-12-25T16:26:39.733Z,31.00
2022-12-25T16:29:08.816Z,45.55
2022-12-25T16:31:38.855Z,29.98
2022-12-25T16:34:09.400Z,19.30
2022-12-25T16:36:39.249Z,16.13
2022-12-25T16:39:08.981Z,24.70
2022-12-25T16:41:39.217Z,40.60
2022-12-25T16:44:10.317Z,45.40
2022-12-25T16:46:41.211Z,53.97
2022-12-25T16:49:10.154Z,55.50
2022-12-25T16:51:39.054Z,56.20
2022-12-25T16:54:07.897Z,59.88
2022-12-25T16:56:36.889Z,25.52
2022-12-25T16:59:07.093Z,33.25
2022-12-25T17:01:36.094Z,16.92
2022-12-25T17:04:05.524Z,16.52
2022-12-25T17:06:34.496Z,5.60
2022-12-25T17:09:05.374Z,1.48
2022-12-25T17:11:34.593Z,4.65
2022-12-25T17:14:07.073Z,8.15
2022-12-25T17:16:37.577Z,1.38
2022-12-25T17:19:09.802Z,2.88
2022-12-25T17:21:38.808Z,2.25
2022-12-25T17:24:08.389Z,7.10
2022-12-25T17:26:37.636Z,3.72
2022-12-25T17:29:07.989Z,3.58
2022-12-25T17:31:38.083Z,1.00
2022-12-25T17:34:08.246Z,1.13
2022-12-25T17:36:37.454Z,1.95
2022-12-25T17:39:07.511Z,1.27
2022-12-25T17:41:36.727Z,2.00
2022-12-25T17:44:07.217Z,1.65
2022-12-25T17:46:36.063Z,1.58
2022-12-25T17:49:04.908Z,3.05
2022-12-25T17:51:33.815Z,3.83
2022-12-25T17:54:04.109Z,3.00
2022-12-25T17:56:34.483Z,0.73
2022-12-25T17:59:06.909Z,7.80
2022-12-25T18:01:38.872Z,1.33
2022-12-25T18:04:08.319Z,6.72
2022-12-25T18:06:37.969Z,2.67
2022-12-25T18:09:08.108Z,2.53
2022-12-25T18:11:40.609Z,1.67
2022-12-25T18:14:12.637Z,1.98
2022-12-25T18:16:44.862Z,5.05
2022-12-25T18:19:18.565Z,1.05
2022-12-25T18:21:47.620Z,5.28
2022-12-25T18:24:16.461Z,2.33
2022-12-25T18:26:45.772Z,1.88
2022-12-25T18:29:14.602Z,0.68
2022-12-25T18:31:45.890Z,1.70
2022-12-25T18:34:14.717Z,1.77
2022-12-25T18:36:44.625Z,1.42
2022-12-25T18:39:14.439Z,1.80
2022-12-25T18:41:57.108Z,2.13
2022-12-25T18:44:25.947Z,2.25
2022-12-25T18:46:56.225Z,4.68
2022-12-25T18:49:25.007Z,0.55
2022-12-25T18:51:54.131Z,2.40
2022-12-25T18:54:42.973Z,1.67
2022-12-25T18:57:11.833Z,0.90
2022-12-25T18:59:41.899Z,1.77
2022-12-25T19:02:13.193Z,3.38
2022-12-25T19:04:43.539Z,1.40
2022-12-25T19:07:13.234Z,2.85
2022-12-25T19:09:42.077Z,0.65
2022-12-25T19:12:10.941Z,2.90
2022-12-25T19:14:48.036Z,0.80
2022-12-25T19:17:18.886Z,1.13
2022-12-25T19:19:48.156Z,1.10
2022-12-25T19:22:17.455Z,3.53
2022-12-25T19:24:46.382Z,3.08
2022-12-25T19:27:15.256Z,7.68
2022-12-25T19:29:44.195Z,3.63
2022-12-25T19:32:13.070Z,5.72
2022-12-25T19:34:43.445Z,7.60
2022-12-25T19:37:12.374Z,4.40
2022-12-25T19:39:46.673Z,2.30
2022-12-25T19:42:17.038Z,2.80
2022-12-25T19:44:45.895Z,3.47
2022-12-25T19:47:14.853Z,3.65
2022-12-25T19:49:47.396Z,36.45
2022-12-25T19:52:19.864Z,12.05
2022-12-25T19:54:52.471Z,15.50
2022-12-25T19:57:21.895Z,13.95
2022-12-25T19:59:50.808Z,3.38
2022-12-25T20:02:19.773Z,5.50
2022-12-25T20:04:50.211Z,18.58
2022-12-25T20:07:19.020Z,12.52
2022-12-25T20:09:47.973Z,8.50
2022-12-25T20:12:16.794Z,11.80
2022-12-25T20:14:45.637Z,8.25
2022-12-25T20:17:16.192Z,11.85
2022-12-25T20:19:45.578Z,12.68
2022-12-25T20:22:15.799Z,8.05
2022-12-25T20:24:44.718Z,11.13
2022-12-25T20:27:13.529Z,21.48
2022-12-25T20:29:42.782Z,6.55
2022-12-25T20:32:11.825Z,10.15
2022-12-25T20:34:40.688Z,11.98
2022-12-25T20:37:09.513Z,16.83
2022-12-25T20:39:41.332Z,4.45
2022-12-25T20:42:10.211Z,5.80
2022-12-25T20:44:39.643Z,3.25
2022-12-25T20:47:08.981Z,3.33
2022-12-25T20:49:37.741Z,2.42
2022-12-25T20:52:06.794Z,3.60
2022-12-25T20:54:35.916Z,8.00
2022-12-25T20:57:06.152Z,7.88
2022-12-25T20:59:37.598Z,2.53
2022-12-25T21:02:07.035Z,6.82
2022-12-25T21:04:36.049Z,20.15
2022-12-25T21:07:05.302Z,3.28
2022-12-25T21:09:34.673Z,7.75
2022-12-25T21:12:05.264Z,3.70
2022-12-25T21:14:34.110Z,5.82
2022-12-25T21:17:04.574Z,5.05
2022-12-25T21:19:33.494Z,9.88
2022-12-25T21:22:02.764Z,33.83
2022-12-25T21:24:32.710Z,29.60
2022-12-25T21:27:02.804Z,54.65
2022-12-25T21:29:32.998Z,49.05
2022-12-25T21:32:19.121Z,68.43
2022-12-25T21:34:47.895Z,51.42
2022-12-25T21:37:16.712Z,48.33
2022-12-25T21:39:45.549Z,43.10
2022-12-25T21:42:15.582Z,63.47
2022-12-25T21:44:45.821Z,45.15
2022-12-25T21:47:14.666Z,30.60
2022-12-25T21:50:01.182Z,38.72
2022-12-25T21:52:30.004Z,44.03
2022-12-25T21:54:58.882Z,53.50
2022-12-25T21:57:27.708Z,42.83
2022-12-25T21:59:58.160Z,55.53
2022-12-25T22:02:27.284Z,49.60
2022-12-25T22:04:57.363Z,28.52
2022-12-25T22:07:25.309Z,18.85
2022-12-25T22:09:54.153Z,17.58
2022-12-25T22:12:40.229Z,56.55
2022-12-25T22:15:11.506Z,39.42
2022-12-25T22:17:59.375Z,28.33
2022-12-25T22:20:30.833Z,69.50
2022-12-25T22:22:59.774Z,34.28
2022-12-25T22:25:28.800Z,63.33
2022-12-25T22:27:58.521Z,62.50
2022-12-25T22:30:30.082Z,57.78
2022-12-25T22:32:59.365Z,77.53
2022-12-25T22:35:28.232Z,70.72
2022-12-25T22:37:57.153Z,78.88
2022-12-25T22:40:25.960Z,86.93
2022-12-25T22:42:55.785Z,70.78
2022-12-25T22:45:25.451Z,63.22
2022-12-25T22:47:55.665Z,54.45
2022-12-25T22:50:24.547Z,68.25
2022-12-25T22:52:54.165Z,58.83
2022-12-25T22:55:23.032Z,49.08
2022-12-25T22:57:52.164Z,46.17
2022-12-25T23:00:21.129Z,51.92
2022-12-25T23:02:50.247Z,41.63
2022-12-25T23:05:20.640Z,55.42
2022-12-25T23:07:49.578Z,57.70
2022-12-25T23:10:18.509Z,49.22
2022-12-25T23:13:04.802Z,44.83
2022-12-25T23:15:33.782Z,44.92
2022-12-25T23:18:21.580Z,57.13
2022-12-25T23:21:09.575Z,72.25
2022-12-25T23:23:55.940Z,49.75
2022-12-25T23:26:24.733Z,39.15
2022-12-25T23:29:10.794Z,43.47
2022-12-25T23:31:42.480Z,53.45
2022-12-25T23:34:11.948Z,61.40
2022-12-25T23:36:42.164Z,72.80
2022-12-25T23:39:11.142Z,48.60
2022-12-25T23:41:40.559Z,61.60
2022-12-25T23:44:10.563Z,59.88
2022-12-25T23:46:40.010Z,50.53
2022-12-25T23:49:09.675Z,35.05
2022-12-25T23:51:39.279Z,40.90
2022-12-25T23:54:10.960Z,41.25
2022-12-25T23:56:39.979Z,30.85
2022-12-25T23:59:09.397Z,36.50
